sensor_id;sensor_type;location;lat;lon;timestamp;pressure;altitude;pressure_sealevel;temperature;humidity
9077;BME280;4574;51.072;17.174;2023-02-28T00:00:06;101584.03;;;1.41;100.00
9077;BME280;4574;51.072;17.174;2023-02-28T00:02:39;101579.59;;;1.43;100.00
9077;BME280;4574;51.072;17.174;2023-02-28T00:05:09;101582.13;;;1.44;100.00
9077;BME280;4574;51.072;17.174;2023-02-28T00:07:38;101581.34;;;1.42;100.00
9077;BME280;4574;51.072;17.174;2023-02-28T00:10:08;101577.25;;;1.35;100.00
9077;BME280;4574;51.072;17.174;2023-02-28T00:12:38;101582.59;;;1.32;100.00
9077;BME280;4574;51.072;17.174;2023-02-28T00:15:07;101576.56;;;1.30;100.00
9077;BME280;4574;51.072;17.174;2023-02-28T00:17:38;101574.94;;;1.28;100.00
9077;BME280;4574;51.072;17.174;2023-02-28T00:20:08;101583.34;;;1.36;100.00
9077;BME280;4574;51.072;17.174;2023-02-28T00:22:39;101582.47;;;1.35;100.00
9077;BME280;4574;51.072;17.174;2023-02-28T00:25:09;101575.41;;;1.39;100.00
9077;BME280;4574;51.072;17.174;2023-02-28T00:27:39;101574.53;;;1.38;100.00
9077;BME280;4574;51.072;17.174;2023-02-28T00:30:10;101574.50;;;1.40;100.00
9077;BME280;4574;51.072;17.174;2023-02-28T00:32:41;101575.41;;;1.39;100.00
9077;BME280;4574;51.072;17.174;2023-02-28T00:35:10;101574.53;;;1.38;100.00
9077;BME280;4574;51.072;17.174;2023-02-28T00:37:39;101573.81;;;1.35;100.00
9077;BME280;4574;51.072;17.174;2023-02-28T00:40:09;101574.53;;;1.38;100.00
9077;BME280;4574;51.072;17.174;2023-02-28T00:42:39;101567.50;;;1.40;100.00
9077;BME280;4574;51.072;17.174;2023-02-28T00:45:08;101571.78;;;1.43;100.00
9077;BME280;4574;51.072;17.174;2023-02-28T00:47:37;101569.09;;;1.44;100.00
9077;BME280;4574;51.072;17.174;2023-02-28T00:50:10;101563.88;;;1.44;100.00
9077;BME280;4574;51.072;17.174;2023-02-28T00:52:38;101570.75;;;1.47;100.00
9077;BME280;4574;51.072;17.174;2023-02-28T00:55:08;101570.66;;;1.48;100.00
9077;BME280;4574;51.072;17.174;2023-02-28T00:57:37;101560.25;;;1.48;100.00
9077;BME280;4574;51.072;17.174;2023-02-28T01:00:07;101574.06;;;1.50;100.00
9077;BME280;4574;51.072;17.174;2023-02-28T01:02:36;101567.16;;;1.49;100.00
9077;BME280;4574;51.072;17.174;2023-02-28T01:05:07;101568.03;;;1.50;100.00
9077;BME280;4574;51.072;17.174;2023-02-28T01:07:36;101570.56;;;1.51;100.00
9077;BME280;4574;51.072;17.174;2023-02-28T01:10:05;101570.56;;;1.51;100.00
9077;BME280;4574;51.072;17.174;2023-02-28T01:12:34;101573.97;;;1.53;100.00
9077;BME280;4574;51.072;17.174;2023-02-28T01:15:03;101563.63;;;1.50;100.00
9077;BME280;4574;51.072;17.174;2023-02-28T01:17:32;101561.03;;;1.50;100.00
9077;BME280;4574;51.072;17.174;2023-02-28T01:20:01;101564.44;;;1.52;100.00
9077;BME280;4574;51.072;17.174;2023-02-28T01:22:31;101557.75;;;1.45;100.00
9077;BME280;4574;51.072;17.174;2023-02-28T01:25:00;101562.06;;;1.46;100.00
9077;BME280;4574;51.072;17.174;2023-02-28T01:27:28;101559.53;;;1.45;100.00
9077;BME280;4574;51.072;17.174;2023-02-28T01:29:57;101564.75;;;1.45;100.00
9077;BME280;4574;51.072;17.174;2023-02-28T01:32:25;101568.28;;;1.42;100.00
9077;BME280;4574;51.072;17.174;2023-02-28T01:34:54;101560.47;;;1.42;100.00
9077;BME280;4574;51.072;17.174;2023-02-28T01:37:23;101572.50;;;1.46;100.00
9077;BME280;4574;51.072;17.174;2023-02-28T01:39:53;101555.25;;;1.42;100.00
9077;BME280;4574;51.072;17.174;2023-02-28T01:42:21;101557.81;;;1.44;100.00
9077;BME280;4574;51.072;17.174;2023-02-28T01:45:00;101551.72;;;1.43;100.00
9077;BME280;4574;51.072;17.174;2023-02-28T01:47:35;101548.44;;;1.38;100.00
9077;BME280;4574;51.072;17.174;2023-02-28T01:50:07;101559.69;;;1.40;100.00
9077;BME280;4574;51.072;17.174;2023-02-28T01:52:37;101558.03;;;1.38;100.00
9077;BME280;4574;51.072;17.174;2023-02-28T01:55:11;101558.78;;;1.41;100.00
9077;BME280;4574;51.072;17.174;2023-02-28T01:57:46;101549.31;;;1.39;100.00
9077;BME280;4574;51.072;17.174;2023-02-28T02:00:18;101558.78;;;1.41;100.00
9077;BME280;4574;51.072;17.174;2023-02-28T02:02:50;101546.97;;;1.31;100.00
9077;BME280;4574;51.072;17.174;2023-02-28T02:05:20;101559.69;;;1.40;100.00
9077;BME280;4574;51.072;17.174;2023-02-28T02:07:52;101561.56;;;1.37;100.00
9077;BME280;4574;51.072;17.174;2023-02-28T02:10:29;101562.34;;;1.39;100.00
9077;BME280;4574;51.072;17.174;2023-02-28T02:13:11;101543.56;;;1.29;100.00
9077;BME280;4574;51.072;17.174;2023-02-28T02:15:47;101555.47;;;1.36;100.00
9077;BME280;4574;51.072;17.174;2023-02-28T02:18:26;101556.47;;;1.34;100.00
9077;BME280;4574;51.072;17.174;2023-02-28T02:21:21;101553.78;;;1.35;100.00
9077;BME280;4574;51.072;17.174;2023-02-28T02:24:22;101547.03;;;1.30;100.00
9077;BME280;4574;51.072;17.174;2023-02-28T02:27:16;101543.56;;;1.29;100.00
9077;BME280;4574;51.072;17.174;2023-02-28T02:30:12;101555.59;;;1.33;100.00
9077;BME280;4574;51.072;17.174;2023-02-28T02:33:06;101560.81;;;1.33;100.00
9077;BME280;4574;51.072;17.174;2023-02-28T02:35:41;101551.28;;;1.32;100.00
9077;BME280;4574;51.072;17.174;2023-02-28T02:38:17;101557.28;;;1.34;100.00
9077;BME280;4574;51.072;17.174;2023-02-28T02:40:51;101539.22;;;1.30;100.00
9077;BME280;4574;51.072;17.174;2023-02-28T02:43:25;101552.06;;;1.34;100.00
9077;BME280;4574;51.072;17.174;2023-02-28T02:45:59;101550.50;;;1.30;100.00
9077;BME280;4574;51.072;17.174;2023-02-28T02:48:33;101558.31;;;1.30;100.00
9077;BME280;4574;51.072;17.174;2023-02-28T02:51:07;101550.72;;;1.25;100.00
9077;BME280;4574;51.072;17.174;2023-02-28T02:53:42;101543.19;;;1.17;100.00
9077;BME280;4574;51.072;17.174;2023-02-28T02:56:13;101547.72;;;1.12;100.00
9077;BME280;4574;51.072;17.174;2023-02-28T02:58:44;101546.06;;;1.10;100.00
9077;BME280;4574;51.072;17.174;2023-02-28T03:01:15;101541.75;;;1.09;100.00
9077;BME280;4574;51.072;17.174;2023-02-28T03:03:57;101555.56;;;1.11;100.00
9077;BME280;4574;51.072;17.174;2023-02-28T03:06:28;101552.88;;;1.14;100.00
9077;BME280;4574;51.072;17.174;2023-02-28T03:08:56;101552.81;;;1.15;100.00
9077;BME280;4574;51.072;17.174;2023-02-28T03:11:25;101539.94;;;1.11;100.00
9077;BME280;4574;51.072;17.174;2023-02-28T03:14:07;101537.44;;;1.08;100.00
9077;BME280;4574;51.072;17.174;2023-02-28T03:16:57;101557.84;;;1.20;100.00
9077;BME280;4574;51.072;17.174;2023-02-28T03:19:45;101556.16;;;1.19;100.00
9077;BME280;4574;51.072;17.174;2023-02-28T03:22:27;101556.16;;;1.19;100.00
9077;BME280;4574;51.072;17.174;2023-02-28T03:25:04;101557.84;;;1.20;100.00
9077;BME280;4574;51.072;17.174;2023-02-28T03:27:40;101554.44;;;1.18;100.00
9077;BME280;4574;51.072;17.174;2023-02-28T03:30:15;101557.84;;;1.20;100.00
9077;BME280;4574;51.072;17.174;2023-02-28T03:32:52;101560.53;;;1.18;100.00
9077;BME280;4574;51.072;17.174;2023-02-28T03:35:25;101564.88;;;1.18;100.00
9077;BME280;4574;51.072;17.174;2023-02-28T03:38:01;101565.78;;;1.17;100.00
9077;BME280;4574;51.072;17.174;2023-02-28T03:40:33;101571.88;;;1.17;100.00
9077;BME280;4574;51.072;17.174;2023-02-28T03:43:09;101574.41;;;1.19;100.00
9077;BME280;4574;51.072;17.174;2023-02-28T03:45:40;101565.09;;;1.12;100.00
9077;BME280;4574;51.072;17.174;2023-02-28T03:48:15;101570.09;;;1.18;100.00
9077;BME280;4574;51.072;17.174;2023-02-28T03:50:47;101575.31;;;1.18;100.00
9077;BME280;4574;51.072;17.174;2023-02-28T03:53:22;101573.59;;;1.17;100.00
9077;BME280;4574;51.072;17.174;2023-02-28T03:55:56;101576.22;;;1.17;100.00
9077;BME280;4574;51.072;17.174;2023-02-28T03:58:31;101568.47;;;1.15;100.00
9077;BME280;4574;51.072;17.174;2023-02-28T04:01:07;101574.53;;;1.16;100.00
9077;BME280;4574;51.072;17.174;2023-02-28T04:03:36;101578.03;;;1.15;100.00
9077;BME280;4574;51.072;17.174;2023-02-28T04:06:08;101563.41;;;1.11;100.00
9077;BME280;4574;51.072;17.174;2023-02-28T04:08:42;101577.53;;;1.05;100.00
9077;BME280;4574;51.072;17.174;2023-02-28T04:11:22;101573.25;;;1.03;100.00
9077;BME280;4574;51.072;17.174;2023-02-28T04:13:52;101586.28;;;1.03;100.00
9077;BME280;4574;51.072;17.174;2023-02-28T04:16:21;101572.56;;;0.98;100.00
9077;BME280;4574;51.072;17.174;2023-02-28T04:19:01;101584.81;;;0.96;100.00
9077;BME280;4574;51.072;17.174;2023-02-28T04:21:34;101593.63;;;0.92;100.00
9077;BME280;4574;51.072;17.174;2023-02-28T04:24:05;101581.41;;;0.94;100.00
9077;BME280;4574;51.072;17.174;2023-02-28T04:26:35;101582.16;;;0.97;100.00
9077;BME280;4574;51.072;17.174;2023-02-28T04:29:05;101590.69;;;1.01;100.00
9077;BME280;4574;51.072;17.174;2023-02-28T04:31:34;101581.16;;;1.01;100.00
9077;BME280;4574;51.072;17.174;2023-02-28T04:34:03;101580.50;;;0.95;100.00
9077;BME280;4574;51.072;17.174;2023-02-28T04:36:32;101586.41;;;1.00;100.00
9077;BME280;4574;51.072;17.174;2023-02-28T04:39:01;101592.31;;;1.05;100.00
9077;BME280;4574;51.072;17.174;2023-02-28T04:41:32;101594.91;;;1.05;100.00
9077;BME280;4574;51.072;17.174;2023-02-28T04:44:01;101586.28;;;1.03;100.00
9077;BME280;4574;51.072;17.174;2023-02-28T04:46:29;101591.41;;;1.06;100.00
9077;BME280;4574;51.072;17.174;2023-02-28T04:48:58;101586.19;;;1.06;100.00
9077;BME280;4574;51.072;17.174;2023-02-28T04:51:27;101593.09;;;1.07;100.00
9077;BME280;4574;51.072;17.174;2023-02-28T04:53:56;101597.47;;;1.06;100.00
9077;BME280;4574;51.072;17.174;2023-02-28T04:56:25;101596.59;;;1.06;100.00
9077;BME280;4574;51.072;17.174;2023-02-28T04:58:55;101603.59;;;1.05;100.00
9077;BME280;4574;51.072;17.174;2023-02-28T05:01:25;101596.72;;;1.03;100.00
9077;BME280;4574;51.072;17.174;2023-02-28T05:03:56;101595.78;;;1.05;100.00
9077;BME280;4574;51.072;17.174;2023-02-28T05:06:27;101598.41;;;1.04;100.00
9077;BME280;4574;51.072;17.174;2023-02-28T05:08:56;101582.25;;;0.94;100.00
9077;BME280;4574;51.072;17.174;2023-02-28T05:11:28;101594.91;;;1.05;100.00
9077;BME280;4574;51.072;17.174;2023-02-28T05:14:04;101586.50;;;0.97;100.00
9077;BME280;4574;51.072;17.174;2023-02-28T05:16:33;101607.25;;;1.00;100.00
9077;BME280;4574;51.072;17.174;2023-02-28T05:19:02;101602.16;;;0.97;100.00
9077;BME280;4574;51.072;17.174;2023-02-28T05:21:32;101605.53;;;0.99;100.00
9077;BME280;4574;51.072;17.174;2023-02-28T05:24:03;101608.94;;;1.01;100.00
9077;BME280;4574;51.072;17.174;2023-02-28T05:26:34;101608.94;;;1.01;100.00
9077;BME280;4574;51.072;17.174;2023-02-28T05:29:05;101601.31;;;0.96;100.00
9077;BME280;4574;51.072;17.174;2023-02-28T05:31:34;101609.81;;;1.01;100.00
9077;BME280;4574;51.072;17.174;2023-02-28T05:34:02;101608.03;;;1.02;100.00
9077;BME280;4574;51.072;17.174;2023-02-28T05:36:32;101614.16;;;1.01;100.00
9077;BME280;4574;51.072;17.174;2023-02-28T05:39:01;101624.59;;;1.01;100.00
9077;BME280;4574;51.072;17.174;2023-02-28T05:41:30;101622.84;;;1.01;100.00
9077;BME280;4574;51.072;17.174;2023-02-28T05:43:59;101624.66;;;0.99;100.00
9077;BME280;4574;51.072;17.174;2023-02-28T05:46:29;101617.69;;;1.00;100.00
9077;BME280;4574;51.072;17.174;2023-02-28T05:48:58;101622.00;;;1.01;100.00
9077;BME280;4574;51.072;17.174;2023-02-28T05:51:28;101631.63;;;0.99;100.00
9077;BME280;4574;51.072;17.174;2023-02-28T05:54:00;101636.00;;;0.98;100.00
9077;BME280;4574;51.072;17.174;2023-02-28T05:56:29;101636.84;;;0.99;100.00
9077;BME280;4574;51.072;17.174;2023-02-28T05:58:58;101636.84;;;0.99;100.00
9077;BME280;4574;51.072;17.174;2023-02-28T06:01:33;101643.75;;;1.00;100.00
9077;BME280;4574;51.072;17.174;2023-02-28T06:04:03;101644.63;;;1.00;100.00
9077;BME280;4574;51.072;17.174;2023-02-28T06:06:32;101653.28;;;1.01;100.00
9077;BME280;4574;51.072;17.174;2023-02-28T06:09:03;101644.66;;;0.99;100.00
9077;BME280;4574;51.072;17.174;2023-02-28T06:11:32;101650.66;;;1.01;100.00
9077;BME280;4574;51.072;17.174;2023-02-28T06:14:02;101648.22;;;0.96;100.00
9077;BME280;4574;51.072;17.174;2023-02-28T06:16:34;101659.34;;;1.01;100.00
9077;BME280;4574;51.072;17.174;2023-02-28T06:19:03;101659.50;;;0.97;100.00
9077;BME280;4574;51.072;17.174;2023-02-28T06:21:32;101654.38;;;0.94;100.00
9077;BME280;4574;51.072;17.174;2023-02-28T06:24:02;101661.31;;;0.95;100.00
9077;BME280;4574;51.072;17.174;2023-02-28T06:26:30;101661.16;;;0.99;100.00
9077;BME280;4574;51.072;17.174;2023-02-28T06:28:59;101654.38;;;0.94;100.00
9077;BME280;4574;51.072;17.174;2023-02-28T06:31:28;101668.13;;;0.99;100.00
9077;BME280;4574;51.072;17.174;2023-02-28T06:33:59;101662.78;;;1.02;100.00
9077;BME280;4574;51.072;17.174;2023-02-28T06:36:27;101667.00;;;1.06;100.00
9077;BME280;4574;51.072;17.174;2023-02-28T06:38:56;101662.69;;;1.05;100.00
9077;BME280;4574;51.072;17.174;2023-02-28T06:41:26;101662.47;;;1.11;100.00
9077;BME280;4574;51.072;17.174;2023-02-28T06:43:57;101667.59;;;1.14;100.00
9077;BME280;4574;51.072;17.174;2023-02-28T06:46:25;101683.13;;;1.17;100.00
9077;BME280;4574;51.072;17.174;2023-02-28T06:48:54;101667.56;;;1.15;100.00
9077;BME280;4574;51.072;17.174;2023-02-28T06:51:24;101679.41;;;1.24;100.00
9077;BME280;4574;51.072;17.174;2023-02-28T06:53:54;101676.69;;;1.27;100.00
9077;BME280;4574;51.072;17.174;2023-02-28T06:56:22;101675.75;;;1.29;100.00
9077;BME280;4574;51.072;17.174;2023-02-28T06:58:51;101683.47;;;1.32;100.00
9077;BME280;4574;51.072;17.174;2023-02-28T07:01:20;101680.78;;;1.33;100.00
9077;BME280;4574;51.072;17.174;2023-02-28T07:03:50;101678.19;;;1.33;100.00
9077;BME280;4574;51.072;17.174;2023-02-28T07:06:19;101679.75;;;1.39;100.00
9077;BME280;4574;51.072;17.174;2023-02-28T07:08:52;101680.47;;;1.42;100.00
9077;BME280;4574;51.072;17.174;2023-02-28T07:11:23;101685.66;;;1.44;100.00
9077;BME280;4574;51.072;17.174;2023-02-28T07:13:53;101676.75;;;1.49;100.00
9077;BME280;4574;51.072;17.174;2023-02-28T07:16:22;101685.38;;;1.51;100.00
9077;BME280;4574;51.072;17.174;2023-02-28T07:18:52;101684.34;;;1.55;100.00
9077;BME280;4574;51.072;17.174;2023-02-28T07:21:22;101675.69;;;1.55;100.00
9077;BME280;4574;51.072;17.174;2023-02-28T07:23:52;101681.75;;;1.55;99.98
9077;BME280;4574;51.072;17.174;2023-02-28T07:26:20;101682.53;;;1.57;98.21
9077;BME280;4574;51.072;17.174;2023-02-28T07:28:49;101683.31;;;1.59;97.13
9077;BME280;4574;51.072;17.174;2023-02-28T07:31:18;101686.63;;;1.64;97.48
9077;BME280;4574;51.072;17.174;2023-02-28T07:33:46;101680.47;;;1.67;94.67
9077;BME280;4574;51.072;17.174;2023-02-28T07:36:16;101688.94;;;1.73;97.02
9077;BME280;4574;51.072;17.174;2023-02-28T07:38:47;101673.31;;;1.72;97.57
9077;BME280;4574;51.072;17.174;2023-02-28T07:41:20;101690.97;;;1.88;94.93
9077;BME280;4574;51.072;17.174;2023-02-28T07:43:48;101699.38;;;1.96;96.39
9077;BME280;4574;51.072;17.174;2023-02-28T07:46:17;101692.34;;;1.98;96.55
9077;BME280;4574;51.072;17.174;2023-02-28T07:48:48;101704.16;;;2.08;94.97
9077;BME280;4574;51.072;17.174;2023-02-28T07:51:16;101700.56;;;2.11;93.47
9077;BME280;4574;51.072;17.174;2023-02-28T07:53:45;101698.72;;;2.13;94.01
9077;BME280;4574;51.072;17.174;2023-02-28T07:56:13;101702.78;;;2.21;90.79
9077;BME280;4574;51.072;17.174;2023-02-28T07:58:43;101693.91;;;2.25;93.02
9077;BME280;4574;51.072;17.174;2023-02-28T08:01:12;101696.28;;;2.31;93.91
9077;BME280;4574;51.072;17.174;2023-02-28T08:03:41;101699.69;;;2.33;93.83
9077;BME280;4574;51.072;17.174;2023-02-28T08:06:16;101696.75;;;2.41;91.82
9077;BME280;4574;51.072;17.174;2023-02-28T08:08:46;101698.22;;;2.48;91.17
9077;BME280;4574;51.072;17.174;2023-02-28T08:11:15;101693.97;;;2.45;89.91
9077;BME280;4574;51.072;17.174;2023-02-28T08:13:45;101692.16;;;2.47;91.03
9077;BME280;4574;51.072;17.174;2023-02-28T08:16:15;101703.72;;;2.63;92.82
9077;BME280;4574;51.072;17.174;2023-02-28T08:18:49;101690.34;;;2.70;91.84
9077;BME280;4574;51.072;17.174;2023-02-28T08:21:18;101693.97;;;2.88;86.21
9077;BME280;4574;51.072;17.174;2023-02-28T08:23:50;101689.47;;;2.91;86.63
9077;BME280;4574;51.072;17.174;2023-02-28T08:26:19;101689.16;;;2.99;88.60
9077;BME280;4574;51.072;17.174;2023-02-28T08:28:49;101685.19;;;3.10;83.25
9077;BME280;4574;51.072;17.174;2023-02-28T08:31:18;101680.78;;;3.11;85.36
9077;BME280;4574;51.072;17.174;2023-02-28T08:33:47;101681.84;;;3.27;84.61
9077;BME280;4574;51.072;17.174;2023-02-28T08:36:19;101685.53;;;3.43;86.50
9077;BME280;4574;51.072;17.174;2023-02-28T08:38:48;101687.59;;;3.55;86.95
9077;BME280;4574;51.072;17.174;2023-02-28T08:41:16;101688.13;;;3.63;83.40
9077;BME280;4574;51.072;17.174;2023-02-28T08:43:45;101687.84;;;3.69;82.70
9077;BME280;4574;51.072;17.174;2023-02-28T08:46:15;101691.53;;;3.65;83.51
9077;BME280;4574;51.072;17.174;2023-02-28T08:48:43;101684.97;;;3.75;85.71
9077;BME280;4574;51.072;17.174;2023-02-28T08:51:14;101679.84;;;5.16;100.00
9077;BME280;4574;51.072;17.174;2023-02-28T08:53:45;101683.56;;;5.61;100.00
9077;BME280;4574;51.072;17.174;2023-02-28T08:56:17;101691.09;;;5.35;87.76
9077;BME280;4574;51.072;17.174;2023-02-28T08:58:46;101694.31;;;5.06;81.98
9077;BME280;4574;51.072;17.174;2023-02-28T09:01:17;101696.16;;;5.04;86.74
9077;BME280;4574;51.072;17.174;2023-02-28T09:03:48;101694.47;;;5.03;87.32
9077;BME280;4574;51.072;17.174;2023-02-28T09:06:18;101696.94;;;4.89;79.15
9077;BME280;4574;51.072;17.174;2023-02-28T09:08:47;101682.09;;;4.71;81.09
9077;BME280;4574;51.072;17.174;2023-02-28T09:11:16;101697.38;;;4.80;84.61
9077;BME280;4574;51.072;17.174;2023-02-28T09:13:46;101682.56;;;4.79;81.89
9077;BME280;4574;51.072;17.174;2023-02-28T09:16:16;101688.88;;;4.75;79.99
9077;BME280;4574;51.072;17.174;2023-02-28T09:18:45;101693.94;;;4.61;79.82
9077;BME280;4574;51.072;17.174;2023-02-28T09:21:15;101680.28;;;4.55;78.77
9077;BME280;4574;51.072;17.174;2023-02-28T09:23:46;101691.63;;;4.55;79.77
9077;BME280;4574;51.072;17.174;2023-02-28T09:26:20;101679.72;;;4.67;83.00
9077;BME280;4574;51.072;17.174;2023-02-28T09:28:50;101683.25;;;4.66;80.43
9077;BME280;4574;51.072;17.174;2023-02-28T09:31:23;101685.09;;;4.64;76.30
9077;BME280;4574;51.072;17.174;2023-02-28T09:33:54;101672.81;;;4.64;78.56
9077;BME280;4574;51.072;17.174;2023-02-28T09:36:24;101676.75;;;4.56;78.66
9077;BME280;4574;51.072;17.174;2023-02-28T09:39:10;101668.41;;;4.48;79.56
9077;BME280;4574;51.072;17.174;2023-02-28T09:41:41;101676.03;;;4.52;77.47
9077;BME280;4574;51.072;17.174;2023-02-28T09:44:19;101672.97;;;4.61;78.87
9077;BME280;4574;51.072;17.174;2023-02-28T09:46:54;101659.25;;;4.73;82.03
9077;BME280;4574;51.072;17.174;2023-02-28T09:49:26;101667.59;;;4.81;77.49
9077;BME280;4574;51.072;17.174;2023-02-28T09:51:59;101662.19;;;4.84;79.63
9077;BME280;4574;51.072;17.174;2023-02-28T09:54:31;101667.44;;;4.84;77.45
9077;BME280;4574;51.072;17.174;2023-02-28T09:57:05;101673.63;;;4.83;79.90
9077;BME280;4574;51.072;17.174;2023-02-28T09:59:51;101670.16;;;4.83;76.68
9077;BME280;4574;51.072;17.174;2023-02-28T10:05:23;101676.34;;;4.82;77.31
9077;BME280;4574;51.072;17.174;2023-02-28T10:08:01;101677.34;;;4.96;78.64
9077;BME280;4574;51.072;17.174;2023-02-28T10:10:37;101679.03;;;4.97;77.61
9077;BME280;4574;51.072;17.174;2023-02-28T10:13:15;101681.28;;;5.05;79.30
9077;BME280;4574;51.072;17.174;2023-02-28T10:15:47;101688.16;;;5.07;77.01
9077;BME280;4574;51.072;17.174;2023-02-28T10:18:21;101683.31;;;5.17;80.26
9077;BME280;4574;51.072;17.174;2023-02-28T10:20:51;101686.16;;;5.29;79.51
9077;BME280;4574;51.072;17.174;2023-02-28T10:23:25;101682.78;;;5.27;75.67
9077;BME280;4574;51.072;17.174;2023-02-28T10:25:58;101681.00;;;5.11;75.34
9077;BME280;4574;51.072;17.174;2023-02-28T10:28:29;101678.16;;;5.15;74.81
9077;BME280;4574;51.072;17.174;2023-02-28T10:30:59;101682.38;;;5.18;74.91
9077;BME280;4574;51.072;17.174;2023-02-28T10:33:31;101663.63;;;5.25;77.42
9077;BME280;4574;51.072;17.174;2023-02-28T10:36:01;101677.97;;;5.35;76.61
9077;BME280;4574;51.072;17.174;2023-02-28T10:38:35;101671.16;;;5.48;78.64
9077;BME280;4574;51.072;17.174;2023-02-28T10:41:05;101670.38;;;5.63;78.29
9077;BME280;4574;51.072;17.174;2023-02-28T10:43:35;101669.34;;;5.82;78.31
9077;BME280;4574;51.072;17.174;2023-02-28T10:46:09;101674.03;;;5.93;77.75
9077;BME280;4574;51.072;17.174;2023-02-28T10:48:44;101670.34;;;6.12;79.11
9077;BME280;4574;51.072;17.174;2023-02-28T10:51:16;101674.56;;;6.15;76.27
9077;BME280;4574;51.072;17.174;2023-02-28T10:53:48;101668.28;;;6.02;71.77
9077;BME280;4574;51.072;17.174;2023-02-28T10:56:28;101671.34;;;6.10;70.03
9077;BME280;4574;51.072;17.174;2023-02-28T10:58:59;101662.72;;;6.23;71.65
9077;BME280;4574;51.072;17.174;2023-02-28T11:01:37;101660.25;;;6.36;68.62
9077;BME280;4574;51.072;17.174;2023-02-28T11:04:19;101662.59;;;6.56;68.05
9077;BME280;4574;51.072;17.174;2023-02-28T11:06:56;101660.91;;;6.70;68.60
9077;BME280;4574;51.072;17.174;2023-02-28T11:09:28;101649.44;;;6.86;67.74
9077;BME280;4574;51.072;17.174;2023-02-28T11:11:59;101659.78;;;6.89;66.63
9077;BME280;4574;51.072;17.174;2023-02-28T11:14:31;101660.94;;;6.99;67.02
9077;BME280;4574;51.072;17.174;2023-02-28T11:17:13;101649.69;;;7.11;65.74
9077;BME280;4574;51.072;17.174;2023-02-28T11:19:48;101635.09;;;7.06;65.79
9077;BME280;4574;51.072;17.174;2023-02-28T11:22:20;101646.34;;;7.37;66.21
9077;BME280;4574;51.072;17.174;2023-02-28T11:24:52;101630.19;;;7.43;67.12
9077;BME280;4574;51.072;17.174;2023-02-28T11:27:26;101629.25;;;7.58;64.13
9077;BME280;4574;51.072;17.174;2023-02-28T11:30:24;101632.06;;;7.69;64.29
9077;BME280;4574;51.072;17.174;2023-02-28T11:32:53;101641.66;;;7.84;63.58
9077;BME280;4574;51.072;17.174;2023-02-28T11:35:26;101634.13;;;7.92;64.66
9077;BME280;4574;51.072;17.174;2023-02-28T11:37:57;101638.81;;;8.01;64.09
9077;BME280;4574;51.072;17.174;2023-02-28T11:40:31;101637.63;;;8.06;62.64
9077;BME280;4574;51.072;17.174;2023-02-28T11:43:11;101635.06;;;8.19;64.71
9077;BME280;4574;51.072;17.174;2023-02-28T11:45:58;101632.31;;;8.34;64.19
9077;BME280;4574;51.072;17.174;2023-02-28T11:48:35;101639.50;;;8.45;60.39
9077;BME280;4574;51.072;17.174;2023-02-28T11:51:15;101641.69;;;8.52;61.91
9077;BME280;4574;51.072;17.174;2023-02-28T11:54:00;101634.25;;;8.45;59.41
9077;BME280;4574;51.072;17.174;2023-02-28T11:56:36;101625.00;;;8.52;60.53
9077;BME280;4574;51.072;17.174;2023-02-28T11:59:22;101616.16;;;8.53;60.13
9077;BME280;4574;51.072;17.174;2023-02-28T12:02:06;101626.19;;;8.60;62.09
9077;BME280;4574;51.072;17.174;2023-02-28T12:04:52;101610.69;;;8.68;59.40
9077;BME280;4574;51.072;17.174;2023-02-28T12:07:31;101614.53;;;8.77;61.80
9077;BME280;4574;51.072;17.174;2023-02-28T12:10:11;101605.38;;;8.95;63.16
9077;BME280;4574;51.072;17.174;2023-02-28T12:12:54;101599.91;;;9.10;62.12
9077;BME280;4574;51.072;17.174;2023-02-28T12:15:43;101606.16;;;9.22;61.67
9077;BME280;4574;51.072;17.174;2023-02-28T12:18:33;101600.88;;;9.34;61.94
9077;BME280;4574;51.072;17.174;2023-02-28T12:21:13;101593.41;;;9.53;62.07
9077;BME280;4574;51.072;17.174;2023-02-28T12:23:53;101590.31;;;9.59;61.66
9077;BME280;4574;51.072;17.174;2023-02-28T12:26:34;101594.31;;;9.64;59.29
9077;BME280;4574;51.072;17.174;2023-02-28T12:29:19;101589.91;;;9.27;54.66
9077;BME280;4574;51.072;17.174;2023-02-28T12:31:52;101582.28;;;9.11;57.34
9077;BME280;4574;51.072;17.174;2023-02-28T12:34:25;101586.81;;;9.33;58.55
9077;BME280;4574;51.072;17.174;2023-02-28T12:36:58;101581.25;;;9.38;57.24
9077;BME280;4574;51.072;17.174;2023-02-28T12:39:33;101580.34;;;9.62;58.82
9077;BME280;4574;51.072;17.174;2023-02-28T12:42:22;101576.41;;;9.80;60.75
9077;BME280;4574;51.072;17.174;2023-02-28T12:44:55;101576.53;;;9.79;58.47
9077;BME280;4574;51.072;17.174;2023-02-28T12:47:25;101567.53;;;9.81;59.61
9077;BME280;4574;51.072;17.174;2023-02-28T12:49:57;101575.00;;;10.00;60.72
9077;BME280;4574;51.072;17.174;2023-02-28T12:52:34;101568.97;;;10.10;59.18
9077;BME280;4574;51.072;17.174;2023-02-28T12:55:13;101564.72;;;10.20;59.73
9077;BME280;4574;51.072;17.174;2023-02-28T12:57:48;101563.91;;;10.31;59.37
9077;BME280;4574;51.072;17.174;2023-02-28T13:00:21;101562.19;;;10.42;60.28
9077;BME280;4574;51.072;17.174;2023-02-28T13:05:54;101568.03;;;10.58;58.93
9077;BME280;4574;51.072;17.174;2023-02-28T13:09:03;101570.63;;;10.47;56.56
9077;BME280;4574;51.072;17.174;2023-02-28T13:11:39;101563.78;;;10.56;57.97
9077;BME280;4574;51.072;17.174;2023-02-28T13:14:20;101562.09;;;10.78;57.96
9077;BME280;4574;51.072;17.174;2023-02-28T13:17:02;101556.00;;;10.99;58.21
9077;BME280;4574;51.072;17.174;2023-02-28T13:19:33;101558.56;;;11.12;55.76
9077;BME280;4574;51.072;17.174;2023-02-28T13:22:03;101566.75;;;11.09;56.22
9077;BME280;4574;51.072;17.174;2023-02-28T13:24:44;101570.38;;;11.19;56.96
9077;BME280;4574;51.072;17.174;2023-02-28T13:27:36;101573.78;;;11.32;55.90
9077;BME280;4574;51.072;17.174;2023-02-28T13:33:27;101561.88;;;11.48;57.29
9077;BME280;4574;51.072;17.174;2023-02-28T13:36:22;101563.19;;;11.43;54.30
9077;BME280;4574;51.072;17.174;2023-02-28T13:38:52;101561.72;;;11.39;54.22
9077;BME280;4574;51.072;17.174;2023-02-28T13:41:41;101563.19;;;11.32;52.91
9077;BME280;4574;51.072;17.174;2023-02-28T13:44:13;101557.78;;;11.33;54.53